Time,TemperatureF,DewpointF,PressureIn,WindDirection,WindDirectionDegrees,WindSpeedMPH,WindSpeedGustMPH,Humidity,HourlyPrecipIn,Conditions,Clouds,dailyrainin,SolarRadiationWatts/m^2,SoftwareType,DateUTC
2013-05-08 00:02:00,58.1,57.3,29.96,SSW,194,0.0,0.0,97,0.00,,,0.44,0,Wunderground v.1.15,2013-05-08 04:02:00,
2013-05-08 00:03:00,57.8,57.0,29.97,SSW,194,0.0,0.0,97,0.00,,,0.44,0,Wunderground v.1.15,2013-05-08 04:03:00,
2013-05-08 00:05:00,57.6,56.8,29.96,SSW,194,0.0,0.0,97,0.00,,,0.44,0,Wunderground v.1.15,2013-05-08 04:05:00,
2013-05-08 00:06:00,57.5,56.7,29.96,SSW,194,0.0,0.0,97,0.00,,,0.44,0,Wunderground v.1.15,2013-05-08 04:06:00,
2013-05-08 00:08:00,57.4,56.6,29.96,SSW,194,0.0,0.0,97,0.00,,,0.44,0,Wunderground v.1.15,2013-05-08 04:08:00,
2013-05-08 00:13:00,57.3,56.5,29.96,SSW,194,0.0,0.0,97,0.00,,,0.44,0,Wunderground v.1.15,2013-05-08 04:13:00,
2013-05-08 00:19:00,57.2,56.4,29.96,SSW,194,0.0,0.0,97,0.00,,,0.44,0,Wunderground v.1.15,2013-05-08 04:19:00,
2013-05-08 00:24:00,57.2,56.4,29.96,SSW,194,0.0,0.0,97,0.00,,,0.44,0,Wunderground v.1.15,2013-05-08 04:24:00,
2013-05-08 00:29:00,57.1,56.3,29.96,SSW,194,0.0,0.0,97,0.00,,,0.44,0,Wunderground v.1.15,2013-05-08 04:29:00,
2013-05-08 00:35:00,56.9,56.1,29.96,SSW,194,0.0,0.0,97,0.00,,,0.44,0,Wunderground v.1.15,2013-05-08 04:35:00,
2013-05-08 00:40:00,56.8,56.0,29.96,SSW,194,0.0,0.0,97,0.00,,,0.44,0,Wunderground v.1.15,2013-05-08 04:40:00,
2013-05-08 00:46:00,56.7,55.9,29.96,SSW,194,0.0,0.0,97,0.00,,,0.44,0,Wunderground v.1.15,2013-05-08 04:46:00,
2013-05-08 00:51:00,56.7,55.9,29.96,SSW,194,0.0,0.0,97,0.00,,,0.44,0,Wunderground v.1.15,2013-05-08 04:51:00,
2013-05-08 00:57:00,56.8,56.0,29.96,SSW,194,0.0,0.0,97,0.00,,,0.44,0,Wunderground v.1.15,2013-05-08 04:57:00,
2013-05-08 01:03:00,56.6,55.8,29.96,SSW,194,0.0,0.0,97,0.00,,,0.00,0,Wunderground v.1.15,2013-05-08 05:03:00,
2013-05-08 01:08:00,56.5,55.7,29.96,SSW,194,0.0,0.0,97,0.00,,,0.00,0,Wunderground v.1.15,2013-05-08 05:08:00,
2013-05-08 01:14:00,56.5,55.7,29.96,SSW,194,0.0,0.0,97,0.00,,,0.00,0,Wunderground v.1.15,2013-05-08 05:14:00,
2013-05-08 01:19:00,56.4,55.6,29.96,SSW,194,0.0,0.0,97,0.00,,,0.00,0,Wunderground v.1.15,2013-05-08 05:19:00,
2013-05-08 01:25:00,56.1,55.3,29.96,SSW,194,0.0,0.0,97,0.00,,,0.00,0,Wunderground v.1.15,2013-05-08 05:25:00,
2013-05-08 01:30:00,56.1,55.3,29.96,SSW,194,0.0,0.0,97,0.00,,,0.00,0,Wunderground v.1.15,2013-05-08 05:30:00,
2013-05-08 01:36:00,56.0,55.2,29.95,SSW,194,0.0,0.0,97,0.00,,,0.00,0,Wunderground v.1.15,2013-05-08 05:36:00,
2013-05-08 01:42:00,55.9,55.1,29.95,SSW,194,0.0,0.0,97,0.00,,,0.00,0,Wunderground v.1.15,2013-05-08 05:42:00,
2013-05-08 01:47:00,55.8,55.0,29.95,SSW,194,0.0,0.0,97,0.00,,,0.00,0,Wunderground v.1.15,2013-05-08 05:47:00,
2013-05-08 01:53:00,55.9,55.1,29.95,SSW,194,0.0,0.0,97,0.00,,,0.00,0,Wunderground v.1.15,2013-05-08 05:53:00,
2013-05-08 01:58:00,56.0,55.2,29.95,SSW,194,0.0,0.0,97,0.00,,,0.00,0,Wunderground v.1.15,2013-05-08 05:58:00,
2013-05-08 02:03:00,56.0,55.2,29.95,SSW,194,0.0,0.0,97,0.00,,,0.00,0,Wunderground v.1.15,2013-05-08 06:03:00,
2013-05-08 02:08:00,56.0,55.2,29.95,SSW,194,0.0,0.0,97,0.00,,,0.00,0,Wunderground v.1.15,2013-05-08 06:08:00,
2013-05-08 02:13:00,56.0,55.2,29.94,SSW,194,0.0,0.0,97,0.00,,,0.00,0,Wunderground v.1.15,2013-05-08 06:13:00,
2013-05-08 02:18:00,56.1,55.5,29.94,SSW,194,0.0,0.0,98,0.00,,,0.00,0,Wunderground v.1.15,2013-05-08 06:18:00,
2013-05-08 02:23:00,56.3,55.7,29.94,SSW,194,0.0,0.0,98,0.00,,,0.00,0,Wunderground v.1.15,2013-05-08 06:23:00,
2013-05-08 02:28:00,56.5,55.9,29.94,SSW,192,0.0,0.0,98,0.00,,,0.00,0,Wunderground v.1.15,2013-05-08 06:28:00,
2013-05-08 02:34:00,56.8,56.2,29.94,South,191,0.0,0.0,98,0.00,,,0.00,0,Wunderground v.1.15,2013-05-08 06:34:00,
2013-05-08 02:39:00,57.1,56.5,29.94,South,188,0.0,1.0,98,0.00,,,0.00,0,Wunderground v.1.15,2013-05-08 06:39:00,
2013-05-08 02:44:00,57.2,56.6,29.94,South,187,0.0,0.0,98,0.00,,,0.00,0,Wunderground v.1.15,2013-05-08 06:44:00,
2013-05-08 02:49:00,57.2,56.6,29.94,South,188,0.0,0.0,98,0.00,,,0.00,0,Wunderground v.1.15,2013-05-08 06:49:00,
2013-05-08 02:54:00,57.2,56.6,29.93,South,188,0.0,0.0,98,0.00,,,0.00,0,Wunderground v.1.15,2013-05-08 06:54:00,
2013-05-08 02:59:00,57.1,56.5,29.94,South,186,0.0,0.0,98,0.00,,,0.00,0,Wunderground v.1.15,2013-05-08 06:59:00,
2013-05-08 03:04:00,57.1,56.5,29.94,South,183,0.0,0.0,98,0.00,,,0.00,0,Wunderground v.1.15,2013-05-08 07:04:00,
2013-05-08 03:09:00,57.0,56.4,29.93,South,183,0.0,0.0,98,0.00,,,0.00,0,Wunderground v.1.15,2013-05-08 07:09:00,
2013-05-08 03:14:00,-999.9,-99.9,29.94,South,183,0.0,0.0,255,0.00,,,0.00,0,Wunderground v.1.15,2013-05-08 07:14:00,
2013-05-08 03:19:00,-999.9,-99.9,29.94,South,183,0.0,0.0,255,0.00,,,0.00,0,Wunderground v.1.15,2013-05-08 07:19:00,
2013-05-08 03:24:00,-999.9,-99.9,29.94,ESE,117,0.0,0.0,255,0.00,,,0.00,0,Wunderground v.1.15,2013-05-08 07:24:00,
2013-05-08 03:29:00,-999.9,-99.9,29.94,ESE,117,0.0,0.0,255,0.00,,,0.00,0,Wunderground v.1.15,2013-05-08 07:29:00,
2013-05-08 03:34:00,-999.9,-99.9,29.94,ESE,117,0.0,0.0,255,0.00,,,0.00,0,Wunderground v.1.15,2013-05-08 07:34:00,
2013-05-08 03:39:00,-999.9,-99.9,29.94,ESE,117,0.0,0.0,255,0.00,,,0.00,0,Wunderground v.1.15,2013-05-08 07:39:00,
2013-05-08 03:44:00,-999.9,-99.9,29.94,ESE,117,0.0,0.0,255,0.00,,,0.00,0,Wunderground v.1.15,2013-05-08 07:44:00,
2013-05-08 03:49:00,-999.9,-99.9,29.94,ESE,117,0.0,0.0,255,0.00,,,0.00,0,Wunderground v.1.15,2013-05-08 07:49:00,
2013-05-08 03:54:00,-999.9,-99.9,29.94,ESE,117,0.0,0.0,255,0.00,,,0.00,0,Wunderground v.1.15,2013-05-08 07:54:00,
2013-05-08 03:59:00,-999.9,-99.9,29.94,ESE,117,0.0,0.0,255,0.00,,,0.00,0,Wunderground v.1.15,2013-05-08 07:59:00,
2013-05-08 04:04:00,-999.9,-99.9,29.94,ESE,117,0.0,0.0,255,0.00,,,0.00,0,Wunderground v.1.15,2013-05-08 08:04:00,
2013-05-08 04:09:00,-999.9,-99.9,29.94,ESE,117,0.0,0.0,255,0.00,,,0.00,0,Wunderground v.1.15,2013-05-08 08:09:00,
2013-05-08 04:14:00,-999.9,-99.9,29.94,ESE,117,0.0,0.0,255,0.00,,,0.00,0,Wunderground v.1.15,2013-05-08 08:14:00,
2013-05-08 04:19:00,-999.9,-99.9,29.94,ESE,117,0.0,0.0,255,0.00,,,0.00,0,Wunderground v.1.15,2013-05-08 08:19:00,
2013-05-08 04:24:00,-999.9,-99.9,29.94,ESE,117,0.0,0.0,255,0.00,,,0.00,0,Wunderground v.1.15,2013-05-08 08:24:00,
2013-05-08 04:29:00,-999.9,-99.9,29.94,ESE,116,0.0,0.0,255,0.00,,,0.00,0,Wunderground v.1.15,2013-05-08 08:29:00,
2013-05-08 04:34:00,-999.9,-99.9,29.94,ESE,116,0.0,0.0,255,0.00,,,0.00,0,Wunderground v.1.15,2013-05-08 08:34:00,
2013-05-08 04:39:00,-999.9,-99.9,29.94,ESE,116,0.0,0.0,255,0.00,,,0.00,0,Wunderground v.1.15,2013-05-08 08:39:00,
2013-05-08 04:44:00,-999.9,-99.9,29.94,ESE,116,0.0,0.0,255,0.00,,,0.00,0,Wunderground v.1.15,2013-05-08 08:44:00,
2013-05-08 04:49:00,-999.9,-99.9,29.94,ESE,116,0.0,0.0,255,0.00,,,0.00,0,Wunderground v.1.15,2013-05-08 08:49:00,
2013-05-08 04:54:00,-999.9,-99.9,29.94,ESE,116,0.0,0.0,255,0.00,,,0.00,0,Wunderground v.1.15,2013-05-08 08:54:00,
2013-05-08 04:59:00,-999.9,-99.9,29.94,ESE,116,0.0,0.0,255,0.00,,,0.00,0,Wunderground v.1.15,2013-05-08 08:59:00,
2013-05-08 05:04:00,-999.9,-99.9,29.94,ESE,116,0.0,0.0,255,0.00,,,0.00,0,Wunderground v.1.15,2013-05-08 09:04:00,
2013-05-08 05:09:00,-999.9,-99.9,29.94,ESE,116,0.0,0.0,255,0.00,,,0.00,0,Wunderground v.1.15,2013-05-08 09:09:00,
2013-05-08 05:14:00,-999.9,-99.9,29.94,ESE,116,0.0,0.0,255,0.00,,,0.00,0,Wunderground v.1.15,2013-05-08 09:14:00,
2013-05-08 05:19:00,-999.9,-99.9,29.94,ESE,116,0.0,0.0,255,0.00,,,0.00,0,Wunderground v.1.15,2013-05-08 09:19:00,
2013-05-08 05:24:00,-999.9,-99.9,29.94,ESE,116,0.0,0.0,255,0.00,,,0.00,0,Wunderground v.1.15,2013-05-08 09:24:00,
2013-05-08 05:29:00,-999.9,-99.9,29.94,ESE,116,0.0,0.0,255,0.00,,,0.00,0,Wunderground v.1.15,2013-05-08 09:29:00,
2013-05-08 05:34:00,-999.9,-99.9,29.94,ESE,116,0.0,0.0,255,0.00,,,0.00,0,Wunderground v.1.15,2013-05-08 09:34:00,
2013-05-08 05:39:00,-999.9,-99.9,29.94,ESE,116,0.0,0.0,255,0.00,,,0.00,0,Wunderground v.1.15,2013-05-08 09:39:00,
2013-05-08 05:44:00,-999.9,-99.9,29.94,ESE,116,0.0,0.0,255,0.00,,,0.00,0,Wunderground v.1.15,2013-05-08 09:44:00,
2013-05-08 05:49:00,-999.9,-99.9,29.95,ESE,116,0.0,0.0,255,0.00,,,0.00,0,Wunderground v.1.15,2013-05-08 09:49:00,
2013-05-08 05:54:00,-999.9,-99.9,29.95,ESE,116,0.0,0.0,255,0.00,,,0.00,0,Wunderground v.1.15,2013-05-08 09:54:00,
2013-05-08 05:59:00,-999.9,-99.9,29.95,ESE,116,0.0,0.0,255,0.00,,,0.00,0,Wunderground v.1.15,2013-05-08 09:59:00,
2013-05-08 06:04:00,-999.9,-99.9,29.95,ESE,116,0.0,0.0,255,0.00,,,0.00,0,Wunderground v.1.15,2013-05-08 10:04:00,
2013-05-08 06:09:00,-999.9,-99.9,29.95,ESE,116,0.0,0.0,255,0.00,,,0.00,0,Wunderground v.1.15,2013-05-08 10:09:00,
2013-05-08 06:14:00,-999.9,-99.9,29.95,ESE,116,0.0,0.0,255,0.00,,,0.00,0,Wunderground v.1.15,2013-05-08 10:14:00,
2013-05-08 06:19:00,-999.9,-99.9,29.95,ESE,116,0.0,0.0,255,0.00,,,0.00,7,Wunderground v.1.15,2013-05-08 10:19:00,
2013-05-08 06:24:00,-999.9,-99.9,29.95,ESE,116,0.0,0.0,255,0.00,,,0.00,9,Wunderground v.1.15,2013-05-08 10:24:00,
2013-05-08 06:29:00,-999.9,-99.9,29.96,ESE,116,0.0,0.0,255,0.00,,,0.00,12,Wunderground v.1.15,2013-05-08 10:29:00,
2013-05-08 06:34:00,-999.9,-99.9,29.96,ESE,116,0.0,0.0,255,0.00,,,0.00,12,Wunderground v.1.15,2013-05-08 10:34:00,
2013-05-08 06:39:00,-999.9,-99.9,29.96,ESE,116,0.0,0.0,255,0.00,,,0.00,16,Wunderground v.1.15,2013-05-08 10:39:00,
2013-05-08 06:44:00,-999.9,-99.9,29.96,ESE,116,0.0,0.0,255,0.00,,,0.00,14,Wunderground v.1.15,2013-05-08 10:44:00,
2013-05-08 06:49:00,-999.9,-99.9,29.96,ESE,116,0.0,0.0,255,0.00,,,0.00,14,Wunderground v.1.15,2013-05-08 10:49:00,
2013-05-08 06:54:00,-999.9,-99.9,29.96,ESE,116,0.0,0.0,255,0.00,,,0.00,18,Wunderground v.1.15,2013-05-08 10:54:00,
2013-05-08 06:59:00,-999.9,-99.9,29.96,ESE,116,0.0,0.0,255,0.00,,,0.00,28,Wunderground v.1.15,2013-05-08 10:59:00,
2013-05-08 07:04:00,-999.9,-99.9,29.96,ESE,116,0.0,0.0,255,0.00,,,0.00,30,Wunderground v.1.15,2013-05-08 11:04:00,
2013-05-08 07:09:00,-999.9,-99.9,29.96,ESE,116,0.0,0.0,255,0.00,,,0.00,30,Wunderground v.1.15,2013-05-08 11:09:00,
2013-05-08 07:14:00,-999.9,-99.9,29.97,ESE,116,0.0,0.0,255,0.00,,,0.00,53,Wunderground v.1.15,2013-05-08 11:14:00,
2013-05-08 07:19:00,-999.9,-99.9,29.97,ESE,116,0.0,0.0,255,0.00,,,0.00,56,Wunderground v.1.15,2013-05-08 11:19:00,
2013-05-08 07:24:00,-999.9,-99.9,29.97,ESE,116,0.0,0.0,255,0.00,,,0.00,53,Wunderground v.1.15,2013-05-08 11:24:00,
2013-05-08 07:29:00,-999.9,-99.9,29.97,ESE,116,0.0,0.0,255,0.00,,,0.00,70,Wunderground v.1.15,2013-05-08 11:29:00,
2013-05-08 07:34:00,-999.9,-99.9,29.97,ESE,116,0.0,0.0,255,0.00,,,0.00,65,Wunderground v.1.15,2013-05-08 11:34:00,
2013-05-08 07:39:00,-999.9,-99.9,29.97,ESE,116,0.0,0.0,255,0.00,,,0.01,77,Wunderground v.1.15,2013-05-08 11:39:00,
2013-05-08 07:44:00,-999.9,-99.9,29.98,ESE,116,0.0,0.0,255,0.00,,,0.01,84,Wunderground v.1.15,2013-05-08 11:44:00,
2013-05-08 07:49:00,-999.9,-99.9,29.98,ESE,116,0.0,0.0,255,0.00,,,0.01,69,Wunderground v.1.15,2013-05-08 11:49:00,
2013-05-08 07:54:00,-999.9,-99.9,29.98,ESE,116,0.0,0.0,255,0.00,,,0.01,77,Wunderground v.1.15,2013-05-08 11:54:00,
2013-05-08 07:59:00,-999.9,-99.9,29.98,ESE,116,0.0,0.0,255,0.00,,,0.01,91,Wunderground v.1.15,2013-05-08 11:59:00,
2013-05-08 08:04:00,-999.9,-99.9,29.98,ESE,116,0.0,0.0,255,0.00,,,0.01,139,Wunderground v.1.15,2013-05-08 12:04:00,
2013-05-08 08:09:00,-999.9,-99.9,29.98,ESE,116,0.0,0.0,255,0.00,,,0.01,120,Wunderground v.1.15,2013-05-08 12:09:00,
2013-05-08 08:14:00,-999.9,-99.9,29.98,ESE,116,0.0,0.0,255,0.00,,,0.01,130,Wunderground v.1.15,2013-05-08 12:14:00,
2013-05-08 08:19:00,-999.9,-99.9,29.99,ESE,116,0.0,0.0,255,0.00,,,0.01,149,Wunderground v.1.15,2013-05-08 12:19:00,
2013-05-08 08:24:00,-999.9,-99.9,29.99,ESE,116,0.0,0.0,255,0.00,,,0.01,139,Wunderground v.1.15,2013-05-08 12:24:00,
2013-05-08 08:29:00,-999.9,-99.9,29.99,ESE,116,0.0,0.0,255,0.00,,,0.01,93,Wunderground v.1.15,2013-05-08 12:29:00,
2013-05-08 08:34:00,-999.9,-99.9,29.98,ESE,116,0.0,0.0,255,0.00,,,0.01,95,Wunderground v.1.15,2013-05-08 12:34:00,
2013-05-08 08:39:00,-999.9,-99.9,29.98,ESE,116,0.0,0.0,255,0.00,,,0.01,105,Wunderground v.1.15,2013-05-08 12:39:00,
2013-05-08 08:44:00,-999.9,-99.9,29.99,ESE,115,0.0,0.0,255,0.00,,,0.01,100,Wunderground v.1.15,2013-05-08 12:44:00,
2013-05-08 08:49:00,-999.9,-99.9,29.98,ESE,115,0.0,0.0,255,0.00,,,0.01,120,Wunderground v.1.15,2013-05-08 12:49:00,
2013-05-08 08:54:00,-999.9,-99.9,29.99,ESE,115,0.0,0.0,255,0.00,,,0.01,200,Wunderground v.1.15,2013-05-08 12:54:00,
2013-05-08 08:59:00,-999.9,-99.9,29.99,ESE,115,0.0,0.0,255,0.00,,,0.01,171,Wunderground v.1.15,2013-05-08 12:59:00,
2013-05-08 09:04:00,58.5,57.7,29.99,ESE,114,0.0,0.0,97,0.00,,,0.01,176,Wunderground v.1.15,2013-05-08 13:04:00,
2013-05-08 09:09:00,58.9,58.1,29.99,ESE,115,0.0,0.0,97,0.00,,,0.01,188,Wunderground v.1.15,2013-05-08 13:09:00,
2013-05-08 09:14:00,59.1,58.2,29.99,ESE,114,0.0,0.0,97,0.00,,,0.01,188,Wunderground v.1.15,2013-05-08 13:14:00,
2013-05-08 09:19:00,58.9,57.8,29.99,ESE,115,0.0,0.0,96,0.00,,,0.01,163,Wunderground v.1.15,2013-05-08 13:19:00,
2013-05-08 09:24:00,58.9,57.8,29.99,ESE,115,0.0,0.0,96,0.00,,,0.01,162,Wunderground v.1.15,2013-05-08 13:24:00,
2013-05-08 09:29:00,58.5,57.1,29.99,ESE,115,0.0,0.0,95,0.00,,,0.01,220,Wunderground v.1.15,2013-05-08 13:29:00,
2013-05-08 09:34:00,59.0,57.6,29.99,South,178,0.0,1.0,95,0.00,,,0.01,232,Wunderground v.1.15,2013-05-08 13:34:00,
2013-05-08 09:39:00,59.0,57.6,29.99,South,178,0.0,1.0,95,0.00,,,0.01,244,Wunderground v.1.15,2013-05-08 13:39:00,
2013-05-08 09:44:00,59.0,57.6,29.99,South,178,0.0,0.0,95,0.00,,,0.02,221,Wunderground v.1.15,2013-05-08 13:44:00,
2013-05-08 09:49:00,58.8,57.4,29.99,South,176,0.0,0.0,95,0.00,,,0.02,178,Wunderground v.1.15,2013-05-08 13:49:00,
2013-05-08 09:54:00,59.2,57.8,29.99,South,178,0.0,0.0,95,0.00,,,0.02,116,Wunderground v.1.15,2013-05-08 13:54:00,
2013-05-08 09:59:00,58.7,57.0,30.00,South,177,0.0,0.0,94,0.00,,,0.02,105,Wunderground v.1.15,2013-05-08 13:59:00,
2013-05-08 10:04:00,58.6,56.9,29.99,South,177,0.0,0.0,94,0.00,,,0.02,169,Wunderground v.1.15,2013-05-08 14:04:00,
2013-05-08 10:09:00,59.2,57.5,30.00,South,178,0.0,0.0,94,0.00,,,0.02,239,Wunderground v.1.15,2013-05-08 14:09:00,
2013-05-08 10:14:00,59.6,57.6,29.99,South,176,0.0,0.0,93,0.00,,,0.02,285,Wunderground v.1.15,2013-05-08 14:14:00,
2013-05-08 10:19:00,60.1,58.1,30.00,South,177,0.0,0.0,93,0.00,,,0.02,290,Wunderground v.1.15,2013-05-08 14:19:00,
2013-05-08 10:24:00,60.1,57.8,29.99,South,177,0.0,0.0,92,0.00,,,0.02,323,Wunderground v.1.15,2013-05-08 14:24:00,
2013-05-08 10:29:00,60.8,58.8,29.99,South,178,0.0,0.0,93,0.00,,,0.02,304,Wunderground v.1.15,2013-05-08 14:29:00,
2013-05-08 10:34:00,61.1,58.1,29.99,South,177,0.0,0.0,90,0.00,,,0.02,232,Wunderground v.1.15,2013-05-08 14:34:00,
2013-05-08 10:39:00,60.3,57.4,30.00,South,182,0.0,0.0,90,0.00,,,0.02,278,Wunderground v.1.15,2013-05-08 14:39:00,
2013-05-08 10:44:00,60.2,57.6,29.99,SSW,194,0.0,0.0,91,0.00,,,0.02,258,Wunderground v.1.15,2013-05-08 14:44:00,
2013-05-08 10:49:00,60.5,57.9,29.99,SSW,200,0.0,0.0,91,0.00,,,0.02,684,Wunderground v.1.15,2013-05-08 14:49:00,
2013-05-08 10:54:00,61.7,57.8,30.00,SSW,202,0.0,0.0,87,0.00,,,0.02,916,Wunderground v.1.15,2013-05-08 14:54:00,
2013-05-08 10:59:00,61.8,57.9,29.99,SSW,203,0.0,0.0,87,0.00,,,0.02,385,Wunderground v.1.15,2013-05-08 14:59:00,
2013-05-08 11:04:00,62.7,57.8,29.99,SSW,203,0.0,0.0,84,0.00,,,0.03,840,Wunderground v.1.15,2013-05-08 15:04:00,
2013-05-08 11:09:00,63.5,57.9,29.99,SSW,199,0.0,0.0,82,0.00,,,0.03,882,Wunderground v.1.15,2013-05-08 15:09:00,
2013-05-08 11:14:00,63.8,58.5,29.99,SSW,200,0.0,0.0,83,0.00,,,0.03,731,Wunderground v.1.15,2013-05-08 15:14:00,
2013-05-08 11:19:00,64.6,59.3,29.99,SSW,197,0.0,0.0,83,0.00,,,0.03,893,Wunderground v.1.15,2013-05-08 15:19:00,
2013-05-08 11:24:00,63.6,58.7,29.99,SSW,197,0.0,0.0,84,0.00,,,0.03,221,Wunderground v.1.15,2013-05-08 15:24:00,
2013-05-08 11:29:00,62.7,57.1,29.99,SSW,197,0.0,0.0,82,0.00,,,0.03,341,Wunderground v.1.15,2013-05-08 15:29:00,
2013-05-08 11:34:00,62.2,57.3,29.99,SSW,198,0.0,0.0,84,0.00,,,0.03,334,Wunderground v.1.15,2013-05-08 15:34:00,
2013-05-08 11:39:00,62.0,56.8,29.99,SSW,198,0.0,0.0,83,0.00,,,0.03,267,Wunderground v.1.15,2013-05-08 15:39:00,
2013-05-08 11:44:00,62.1,56.9,29.99,SSW,195,0.0,1.0,83,0.00,,,0.03,267,Wunderground v.1.15,2013-05-08 15:44:00,
2013-05-08 11:49:00,61.8,57.2,29.99,SSW,194,0.0,1.0,85,0.00,,,0.03,281,Wunderground v.1.15,2013-05-08 15:49:00,
2013-05-08 11:54:00,62.1,57.9,29.99,SSW,194,0.0,0.0,86,0.00,,,0.03,446,Wunderground v.1.15,2013-05-08 15:54:00,
2013-05-08 11:59:00,63.3,58.4,29.98,SSW,193,0.0,0.0,84,0.00,,,0.03,613,Wunderground v.1.15,2013-05-08 15:59:00,
2013-05-08 12:04:00,63.5,58.2,29.98,South,178,0.0,0.0,83,0.00,,,0.03,445,Wunderground v.1.15,2013-05-08 16:04:00,
2013-05-08 12:09:00,63.4,57.5,29.98,South,178,0.0,0.0,81,0.00,,,0.03,446,Wunderground v.1.15,2013-05-08 16:09:00,
2013-05-08 12:14:00,64.0,58.7,29.98,South,179,0.0,1.0,83,0.39,,,0.05,381,Wunderground v.1.15,2013-05-08 16:14:00,
2013-05-08 12:19:00,64.2,58.2,29.97,South,179,0.0,0.0,81,0.43,,,0.07,506,Wunderground v.1.15,2013-05-08 16:19:00,
2013-05-08 12:24:00,63.9,58.0,29.97,South,179,0.0,0.0,81,0.10,,,0.07,329,Wunderground v.1.15,2013-05-08 16:24:00,
2013-05-08 12:29:00,63.9,59.0,29.97,South,179,0.0,0.0,84,0.06,,,0.07,353,Wunderground v.1.15,2013-05-08 16:29:00,
2013-05-08 12:34:00,63.1,57.5,29.97,SSW,195,0.0,1.0,82,0.06,,,0.08,452,Wunderground v.1.15,2013-05-08 16:34:00,
2013-05-08 12:39:00,62.8,57.9,29.97,SSW,194,0.0,0.0,84,0.06,,,0.08,475,Wunderground v.1.15,2013-05-08 16:39:00,
2013-05-08 12:44:00,64.3,58.7,29.97,SSW,198,0.0,1.0,82,0.04,,,0.08,635,Wunderground v.1.15,2013-05-08 16:44:00,
2013-05-08 12:49:00,65.0,59.4,29.97,SSW,197,0.0,0.0,82,0.00,,,0.08,1097,Wunderground v.1.15,2013-05-08 16:49:00,
2013-05-08 12:54:00,66.1,57.9,29.97,SSW,194,0.0,1.0,75,0.00,,,0.08,932,Wunderground v.1.15,2013-05-08 16:54:00,
2013-05-08 12:59:00,66.5,58.3,29.97,SSW,202,0.0,5.0,75,0.00,,,0.08,1092,Wunderground v.1.15,2013-05-08 16:59:00,
2013-05-08 13:05:00,66.1,57.9,29.97,SSE,165,0.0,0.0,75,0.00,,,0.08,383,Wunderground v.1.15,2013-05-08 17:05:00,
2013-05-08 13:10:00,66.7,58.9,29.96,South,187,0.0,0.0,76,0.00,,,0.08,360,Wunderground v.1.15,2013-05-08 17:10:00,
2013-05-08 13:15:00,66.1,57.9,29.96,ESE,112,0.0,6.0,75,0.00,,,0.08,1000,Wunderground v.1.15,2013-05-08 17:15:00,
2013-05-08 13:20:00,67.1,58.9,29.96,SSW,197,0.0,0.0,75,0.00,,,0.08,524,Wunderground v.1.15,2013-05-08 17:20:00,
2013-05-08 13:25:00,66.4,57.1,29.96,SSW,205,0.0,1.0,72,0.00,,,0.08,403,Wunderground v.1.15,2013-05-08 17:25:00,
2013-05-08 13:30:00,65.7,56.4,29.96,SSW,205,0.0,0.0,72,0.00,,,0.08,278,Wunderground v.1.15,2013-05-08 17:30:00,
2013-05-08 13:35:00,65.9,56.2,29.95,SSW,198,2.0,7.0,71,0.00,,,0.08,332,Wunderground v.1.15,2013-05-08 17:35:00,
2013-05-08 13:40:00,65.6,56.3,29.95,SSW,209,0.0,1.0,72,0.00,,,0.08,352,Wunderground v.1.15,2013-05-08 17:40:00,
2013-05-08 13:45:00,65.5,56.2,29.95,SSW,205,0.0,6.0,72,0.00,,,0.08,464,Wunderground v.1.15,2013-05-08 17:45:00,
2013-05-08 13:50:00,65.8,56.9,29.95,SSW,196,0.0,1.0,73,0.00,,,0.08,782,Wunderground v.1.15,2013-05-08 17:50:00,
2013-05-08 13:55:00,66.7,57.4,29.95,West,268,0.0,8.0,72,0.00,,,0.08,889,Wunderground v.1.15,2013-05-08 17:55:00,
2013-05-08 14:00:00,67.0,55.7,29.95,SSW,207,0.0,0.0,67,0.00,,,0.08,900,Wunderground v.1.15,2013-05-08 18:00:00,
2013-05-08 14:05:00,67.4,56.5,29.95,SSW,206,0.0,4.0,68,0.00,,,0.08,271,Wunderground v.1.15,2013-05-08 18:05:00,
2013-05-08 14:10:00,68.1,56.3,29.94,South,176,0.0,0.0,66,0.00,,,0.08,954,Wunderground v.1.15,2013-05-08 18:10:00,
2013-05-08 14:15:00,68.7,57.3,29.94,South,171,0.0,1.0,67,0.00,,,0.08,942,Wunderground v.1.15,2013-05-08 18:15:00,
2013-05-08 14:20:00,68.5,56.7,29.94,SSW,204,6.0,6.0,66,0.00,,,0.08,991,Wunderground v.1.15,2013-05-08 18:20:00,
2013-05-08 14:25:00,68.5,56.7,29.94,SSW,200,0.0,6.0,66,0.00,,,0.08,1037,Wunderground v.1.15,2013-05-08 18:25:00,
2013-05-08 14:30:00,67.5,55.7,29.93,SSW,207,0.0,1.0,66,0.00,,,0.08,220,Wunderground v.1.15,2013-05-08 18:30:00,
2013-05-08 14:35:00,67.4,56.1,29.93,SSW,194,0.0,1.0,67,0.00,,,0.08,251,Wunderground v.1.15,2013-05-08 18:35:00,
2013-05-08 14:40:00,68.1,56.7,29.92,SSW,192,0.0,1.0,67,0.00,,,0.08,970,Wunderground v.1.15,2013-05-08 18:40:00,
2013-05-08 14:45:00,68.9,57.1,29.92,SSW,204,5.0,6.0,66,0.00,,,0.08,928,Wunderground v.1.15,2013-05-08 18:45:00,
2013-05-08 14:50:00,69.2,56.9,29.92,SSW,209,0.0,1.0,65,0.00,,,0.08,909,Wunderground v.1.15,2013-05-08 18:50:00,
2013-05-08 14:55:00,69.5,56.3,29.92,SSW,202,4.0,11.0,63,0.00,,,0.08,905,Wunderground v.1.15,2013-05-08 18:55:00,
2013-05-08 15:00:00,69.2,56.1,29.92,SSW,202,0.0,3.0,63,0.00,,,0.08,997,Wunderground v.1.15,2013-05-08 19:00:00,
2013-05-08 15:05:00,69.5,57.2,29.91,SSW,202,0.0,7.0,65,0.00,,,0.08,227,Wunderground v.1.15,2013-05-08 19:05:00,
2013-05-08 15:11:00,68.8,55.7,29.92,SSW,202,0.0,1.0,63,0.00,,,0.08,299,Wunderground v.1.15,2013-05-08 19:11:00,
2013-05-08 15:16:00,69.4,56.7,29.92,SSW,200,0.0,2.0,64,0.00,,,0.08,926,Wunderground v.1.15,2013-05-08 19:16:00,
2013-05-08 15:21:00,70.2,57.0,29.92,SSW,202,0.0,0.0,63,0.00,,,0.08,944,Wunderground v.1.15,2013-05-08 19:21:00,
2013-05-08 15:26:00,70.0,57.3,29.92,SSW,198,0.0,0.0,64,0.00,,,0.08,167,Wunderground v.1.15,2013-05-08 19:26:00,
2013-05-08 15:31:00,68.9,56.6,29.92,SSE,156,0.0,0.0,65,0.00,,,0.08,132,Wunderground v.1.15,2013-05-08 19:31:00,
2013-05-08 15:36:00,68.0,56.2,29.92,SSE,153,0.0,0.0,66,0.00,,,0.08,137,Wunderground v.1.15,2013-05-08 19:36:00,
2013-05-08 15:41:00,67.4,54.8,29.92,South,174,2.0,2.0,64,0.00,,,0.08,169,Wunderground v.1.15,2013-05-08 19:41:00,
2013-05-08 15:46:00,67.3,52.9,29.92,SSW,192,0.0,5.0,60,0.00,,,0.08,218,Wunderground v.1.15,2013-05-08 19:46:00,
2013-05-08 15:51:00,67.7,53.8,29.92,SSW,210,0.0,1.0,61,0.00,,,0.08,439,Wunderground v.1.15,2013-05-08 19:51:00,
2013-05-08 15:56:00,67.6,55.0,29.92,South,170,0.0,3.0,64,0.00,,,0.08,207,Wunderground v.1.15,2013-05-08 19:56:00,
2013-05-08 16:01:00,67.5,54.9,29.92,SSW,210,0.0,6.0,64,0.00,,,0.08,178,Wunderground v.1.15,2013-05-08 20:01:00,
2013-05-08 16:06:00,67.3,54.7,29.92,SSW,202,0.0,11.0,64,0.00,,,0.08,91,Wunderground v.1.15,2013-05-08 20:06:00,
2013-05-08 16:11:00,65.7,54.0,29.93,South,190,3.0,15.0,66,0.00,,,0.08,47,Wunderground v.1.15,2013-05-08 20:11:00,
2013-05-08 16:16:00,63.6,52.8,29.93,SSW,207,1.0,24.0,68,0.00,,,0.08,65,Wunderground v.1.15,2013-05-08 20:16:00,
2013-05-08 16:21:00,62.7,53.2,29.93,SW,216,8.0,8.0,71,0.00,,,0.08,49,Wunderground v.1.15,2013-05-08 20:21:00,
2013-05-08 16:26:00,61.5,52.4,29.94,South,178,0.0,13.0,72,0.00,,,0.08,62,Wunderground v.1.15,2013-05-08 20:26:00,
2013-05-08 16:32:00,60.9,52.2,29.94,SSW,203,1.0,8.0,73,0.00,,,0.08,72,Wunderground v.1.15,2013-05-08 20:32:00,
2013-05-08 16:37:00,60.7,52.7,29.95,South,191,0.0,8.0,75,0.00,,,0.08,76,Wunderground v.1.15,2013-05-08 20:37:00,
2013-05-08 16:42:00,60.5,52.5,29.95,ESE,108,0.0,7.0,75,0.00,,,0.08,79,Wunderground v.1.15,2013-05-08 20:42:00,
2013-05-08 16:47:00,60.2,53.0,29.95,South,182,3.0,7.0,77,0.00,,,0.08,86,Wunderground v.1.15,2013-05-08 20:47:00,
2013-05-08 16:52:00,59.8,53.3,29.95,SW,229,0.0,8.0,79,0.00,,,0.08,91,Wunderground v.1.15,2013-05-08 20:52:00,
2013-05-08 16:57:00,59.6,53.8,29.96,SSW,203,0.0,8.0,81,0.00,,,0.08,100,Wunderground v.1.15,2013-05-08 20:57:00,
2013-05-08 17:02:00,59.5,54.3,29.96,SSW,195,0.0,1.0,83,0.00,,,0.08,109,Wunderground v.1.15,2013-05-08 21:02:00,
2013-05-08 17:07:00,58.6,53.8,29.96,South,190,0.0,6.0,84,0.00,,,0.09,109,Wunderground v.1.15,2013-05-08 21:07:00,
2013-05-08 17:12:00,58.5,54.3,29.96,South,190,0.0,0.0,86,0.00,,,0.09,105,Wunderground v.1.15,2013-05-08 21:12:00,
2013-05-08 17:17:00,58.3,54.1,29.96,South,190,0.0,0.0,86,0.00,,,0.09,102,Wunderground v.1.15,2013-05-08 21:17:00,
2013-05-08 17:22:00,58.1,53.6,29.96,South,190,0.0,0.0,85,0.00,,,0.09,98,Wunderground v.1.15,2013-05-08 21:22:00,
2013-05-08 17:27:00,58.5,54.6,29.96,South,190,0.0,0.0,87,0.00,,,0.09,88,Wunderground v.1.15,2013-05-08 21:27:00,
2013-05-08 17:32:00,58.1,54.6,29.96,South,190,0.0,0.0,88,0.00,,,0.09,76,Wunderground v.1.15,2013-05-08 21:32:00,
2013-05-08 17:37:00,58.1,54.2,29.96,SSW,192,0.0,0.0,87,0.00,,,0.09,74,Wunderground v.1.15,2013-05-08 21:37:00,
2013-05-08 17:42:00,58.1,54.9,29.96,South,191,0.0,0.0,89,0.00,,,0.09,65,Wunderground v.1.15,2013-05-08 21:42:00,
2013-05-08 17:47:00,58.1,54.9,29.96,South,191,0.0,0.0,89,0.00,,,0.09,63,Wunderground v.1.15,2013-05-08 21:47:00,
2013-05-08 17:52:00,58.1,55.2,29.96,SSW,192,0.0,0.0,90,0.00,,,0.09,72,Wunderground v.1.15,2013-05-08 21:52:00,
2013-05-08 17:57:00,58.1,55.2,29.96,South,191,0.0,0.0,90,0.00,,,0.09,83,Wunderground v.1.15,2013-05-08 21:57:00,
2013-05-08 18:02:00,58.1,55.5,29.96,SSW,192,0.0,0.0,91,0.00,,,0.10,86,Wunderground v.1.15,2013-05-08 22:02:00,
2013-05-08 18:07:00,58.1,55.5,29.96,South,191,0.0,0.0,91,0.00,,,0.10,84,Wunderground v.1.15,2013-05-08 22:07:00,
2013-05-08 18:12:00,57.7,55.1,29.95,SSW,192,0.0,0.0,91,0.00,,,0.10,69,Wunderground v.1.15,2013-05-08 22:12:00,
2013-05-08 18:17:00,57.7,55.4,29.95,SSW,192,0.0,0.0,92,0.00,,,0.10,67,Wunderground v.1.15,2013-05-08 22:17:00,
2013-05-08 18:22:00,57.6,55.3,29.95,South,191,0.0,0.0,92,0.00,,,0.10,58,Wunderground v.1.15,2013-05-08 22:22:00,
2013-05-08 18:27:00,57.5,55.5,29.95,SSW,192,0.0,0.0,93,0.00,,,0.10,53,Wunderground v.1.15,2013-05-08 22:27:00,
2013-05-08 18:32:00,57.3,55.3,29.95,South,191,0.0,0.0,93,0.00,,,0.10,47,Wunderground v.1.15,2013-05-08 22:32:00,
2013-05-08 18:37:00,57.2,55.2,29.95,South,191,0.0,0.0,93,0.00,,,0.10,46,Wunderground v.1.15,2013-05-08 22:37:00,
2013-05-08 18:42:00,57.4,55.4,29.95,South,191,0.0,0.0,93,0.00,,,0.10,39,Wunderground v.1.15,2013-05-08 22:42:00,
2013-05-08 18:47:00,57.3,55.3,29.95,SSW,194,0.0,0.0,93,0.00,,,0.11,33,Wunderground v.1.15,2013-05-08 22:47:00,
2013-05-08 18:52:00,57.4,55.7,29.95,SSW,194,0.0,0.0,94,0.00,,,0.11,35,Wunderground v.1.15,2013-05-08 22:52:00,
2013-05-08 18:57:00,57.6,55.9,29.95,SSW,194,0.0,0.0,94,0.00,,,0.11,35,Wunderground v.1.15,2013-05-08 22:57:00,
2013-05-08 19:02:00,57.7,56.0,29.95,SSW,194,0.0,0.0,94,0.00,,,0.11,30,Wunderground v.1.15,2013-05-08 23:02:00,
2013-05-08 19:07:00,57.6,55.9,29.95,SSW,196,0.0,0.0,94,0.00,,,0.11,30,Wunderground v.1.15,2013-05-08 23:07:00,
2013-05-08 19:12:00,57.6,55.9,29.95,SSW,198,0.0,0.0,94,0.00,,,0.11,26,Wunderground v.1.15,2013-05-08 23:12:00,
2013-05-08 19:17:00,57.4,55.7,29.95,SSW,198,0.0,0.0,94,0.00,,,0.11,25,Wunderground v.1.15,2013-05-08 23:17:00,
2013-05-08 19:22:00,57.2,55.5,29.95,SSW,198,0.0,0.0,94,0.00,,,0.11,25,Wunderground v.1.15,2013-05-08 23:22:00,
2013-05-08 19:27:00,57.3,55.6,29.94,SSW,198,0.0,0.0,94,0.00,,,0.11,23,Wunderground v.1.15,2013-05-08 23:27:00,
2013-05-08 19:32:00,57.0,55.3,29.94,SSW,198,0.0,0.0,94,0.00,,,0.11,19,Wunderground v.1.15,2013-05-08 23:32:00,
2013-05-08 19:38:00,57.0,55.3,29.94,SSW,198,0.0,0.0,94,0.00,,,0.11,18,Wunderground v.1.15,2013-05-08 23:38:00,
2013-05-08 19:44:00,56.9,55.2,29.94,SSW,198,0.0,0.0,94,0.00,,,0.11,16,Wunderground v.1.15,2013-05-08 23:44:00,
2013-05-08 19:50:00,56.9,55.5,29.94,SSW,196,0.0,0.0,95,0.00,,,0.11,11,Wunderground v.1.15,2013-05-08 23:50:00,
2013-05-08 19:55:00,56.8,55.4,29.94,SSW,194,0.0,0.0,95,0.00,,,0.11,7,Wunderground v.1.15,2013-05-08 23:55:00,
2013-05-08 20:01:00,56.6,55.2,29.94,SSW,194,0.0,0.0,95,0.00,,,0.11,0,Wunderground v.1.15,2013-05-09 00:01:00,
2013-05-08 20:06:00,56.7,55.3,29.94,SSW,194,0.0,0.0,95,0.00,,,0.11,0,Wunderground v.1.15,2013-05-09 00:06:00,
2013-05-08 20:12:00,56.6,55.2,29.94,SSW,194,0.0,0.0,95,0.00,,,0.11,0,Wunderground v.1.15,2013-05-09 00:12:00,
2013-05-08 20:17:00,56.6,55.2,29.94,SSW,194,0.0,0.0,95,0.00,,,0.11,0,Wunderground v.1.15,2013-05-09 00:17:00,
2013-05-08 20:23:00,56.4,55.0,29.94,SSW,194,0.0,0.0,95,0.00,,,0.11,0,Wunderground v.1.15,2013-05-09 00:23:00,
2013-05-08 20:28:00,56.3,54.9,29.94,SSW,194,0.0,0.0,95,0.00,,,0.11,0,Wunderground v.1.15,2013-05-09 00:28:00,
2013-05-08 20:33:00,56.2,54.8,29.95,SSW,194,0.0,0.0,95,0.00,,,0.11,0,Wunderground v.1.15,2013-05-09 00:33:00,
2013-05-08 20:39:00,56.1,54.7,29.95,SSW,194,0.0,0.0,95,0.00,,,0.11,0,Wunderground v.1.15,2013-05-09 00:39:00,
2013-05-08 20:44:00,56.0,54.6,29.95,SSW,194,0.0,0.0,95,0.00,,,0.11,0,Wunderground v.1.15,2013-05-09 00:44:00,
2013-05-08 20:50:00,56.1,55.0,29.95,SSW,194,0.0,0.0,96,0.00,,,0.11,0,Wunderground v.1.15,2013-05-09 00:50:00,
2013-05-08 20:55:00,56.1,55.0,29.95,SSW,194,0.0,0.0,96,0.00,,,0.11,0,Wunderground v.1.15,2013-05-09 00:55:00,
2013-05-08 21:00:00,56.0,54.6,29.95,SSW,194,0.0,0.0,95,0.00,,,0.11,0,Wunderground v.1.15,2013-05-09 01:00:00,
2013-05-08 21:05:00,56.1,55.0,29.95,SSW,194,0.0,0.0,96,0.00,,,0.11,0,Wunderground v.1.15,2013-05-09 01:05:00,
2013-05-08 21:11:00,56.0,54.6,29.95,SSW,194,0.0,0.0,95,0.00,,,0.11,0,Wunderground v.1.15,2013-05-09 01:11:00,
2013-05-08 21:16:00,56.0,54.9,29.95,SSW,194,0.0,0.0,96,0.00,,,0.11,0,Wunderground v.1.15,2013-05-09 01:16:00,
2013-05-08 21:22:00,56.0,54.9,29.95,SSW,194,0.0,0.0,96,0.00,,,0.11,0,Wunderground v.1.15,2013-05-09 01:22:00,
2013-05-08 21:28:00,56.0,54.9,29.96,SSW,194,0.0,0.0,96,0.00,,,0.11,0,Wunderground v.1.15,2013-05-09 01:28:00,
2013-05-08 21:33:00,56.0,54.9,29.96,SSW,194,0.0,0.0,96,0.00,,,0.11,0,Wunderground v.1.15,2013-05-09 01:33:00,
2013-05-08 21:39:00,56.0,54.9,29.96,SSW,194,0.0,0.0,96,0.00,,,0.11,0,Wunderground v.1.15,2013-05-09 01:39:00,
2013-05-08 21:45:00,56.1,55.0,29.96,SSW,194,0.0,0.0,96,0.00,,,0.11,0,Wunderground v.1.15,2013-05-09 01:45:00,
2013-05-08 21:50:00,56.2,55.1,29.96,SSW,194,0.0,0.0,96,0.00,,,0.11,0,Wunderground v.1.15,2013-05-09 01:50:00,
2013-05-08 21:56:00,56.2,55.1,29.96,SSW,194,0.0,0.0,96,0.00,,,0.11,0,Wunderground v.1.15,2013-05-09 01:56:00,
2013-05-08 22:01:00,56.2,55.1,29.96,SSW,194,0.0,0.0,96,0.00,,,0.11,0,Wunderground v.1.15,2013-05-09 02:01:00,
2013-05-08 22:06:00,56.3,55.2,29.96,SSW,194,0.0,0.0,96,0.00,,,0.11,0,Wunderground v.1.15,2013-05-09 02:06:00,
2013-05-08 22:11:00,56.3,55.2,29.97,SSW,194,0.0,0.0,96,0.00,,,0.11,0,Wunderground v.1.15,2013-05-09 02:11:00,
2013-05-08 22:17:00,56.3,55.2,29.96,SSW,194,0.0,0.0,96,0.00,,,0.11,0,Wunderground v.1.15,2013-05-09 02:17:00,
2013-05-08 22:22:00,56.3,55.2,29.96,SSW,194,0.0,0.0,96,0.00,,,0.11,0,Wunderground v.1.15,2013-05-09 02:22:00,
2013-05-08 22:28:00,56.2,55.1,29.96,SSW,194,0.0,0.0,96,0.00,,,0.11,0,Wunderground v.1.15,2013-05-09 02:28:00,
2013-05-08 22:34:00,56.1,55.0,29.96,SSW,194,0.0,0.0,96,0.00,,,0.11,0,Wunderground v.1.15,2013-05-09 02:34:00,
2013-05-08 22:40:00,56.1,55.0,29.96,SSW,194,0.0,0.0,96,0.00,,,0.11,0,Wunderground v.1.15,2013-05-09 02:40:00,
2013-05-08 22:46:00,56.2,55.1,29.96,SSW,194,0.0,0.0,96,0.00,,,0.11,0,Wunderground v.1.15,2013-05-09 02:46:00,
2013-05-08 22:51:00,56.2,55.1,29.96,SSW,194,0.0,0.0,96,0.00,,,0.11,0,Wunderground v.1.15,2013-05-09 02:51:00,
2013-05-08 22:56:00,56.2,55.1,29.96,SSW,194,0.0,0.0,96,0.00,,,0.11,0,Wunderground v.1.15,2013-05-09 02:56:00,
2013-05-08 23:03:00,56.2,55.1,29.96,SSW,194,0.0,0.0,96,0.00,,,0.11,0,Wunderground v.1.15,2013-05-09 03:03:00,
2013-05-08 23:08:00,56.2,55.1,29.96,SSW,194,0.0,0.0,96,0.00,,,0.11,0,Wunderground v.1.15,2013-05-09 03:08:00,
2013-05-08 23:13:00,56.3,55.2,29.96,SSW,194,0.0,0.0,96,0.00,,,0.11,0,Wunderground v.1.15,2013-05-09 03:13:00,
2013-05-08 23:19:00,56.4,55.3,29.96,SSW,194,0.0,0.0,96,0.00,,,0.11,0,Wunderground v.1.15,2013-05-09 03:19:00,
2013-05-08 23:25:00,56.5,55.4,29.96,SSW,194,0.0,0.0,96,0.00,,,0.11,0,Wunderground v.1.15,2013-05-09 03:25:00,
2013-05-08 23:30:00,56.6,55.5,29.96,SSW,194,0.0,0.0,96,0.00,,,0.11,0,Wunderground v.1.15,2013-05-09 03:30:00,
2013-05-08 23:36:00,56.6,55.5,29.96,SSW,194,0.0,0.0,96,0.00,,,0.11,0,Wunderground v.1.15,2013-05-09 03:36:00,
2013-05-08 23:42:00,56.5,55.4,29.96,SSW,194,0.0,0.0,96,0.00,,,0.11,0,Wunderground v.1.15,2013-05-09 03:42:00,
2013-05-08 23:47:00,56.5,55.4,29.96,SSW,194,0.0,0.0,96,0.00,,,0.11,0,Wunderground v.1.15,2013-05-09 03:47:00,
2013-05-08 23:53:00,56.5,55.4,29.96,SSW,194,0.0,0.0,96,0.00,,,0.11,0,Wunderground v.1.15,2013-05-09 03:53:00,
2013-05-08 23:58:00,56.4,55.3,29.96,SSW,194,0.0,0.0,96,0.00,,,0.11,0,Wunderground v.1.15,2013-05-09 03:58:00,